createdAt,value
2023-02-22T00:00:02.473Z,25.02
2023-02-22T00:00:32.491Z,25.02
2023-02-22T00:01:02.514Z,25.00
2023-02-22T00:01:32.535Z,25.02
2023-02-22T00:02:02.596Z,25.05
2023-02-22T00:02:32.632Z,25.03
2023-02-22T00:03:02.691Z,25.03
2023-02-22T00:03:32.686Z,25.02
2023-02-22T00:04:02.706Z,25.02
2023-02-22T00:04:32.727Z,24.99
2023-02-22T00:05:02.776Z,25.00
2023-02-22T00:05:32.783Z,25.03
2023-02-22T00:06:02.803Z,25.02
2023-02-22T00:06:32.840Z,25.03
2023-02-22T00:07:02.860Z,25.00
2023-02-22T00:07:32.893Z,25.03
2023-02-22T00:08:02.924Z,25.00
2023-02-22T00:08:32.940Z,25.00
2023-02-22T00:09:02.966Z,25.02
2023-02-22T00:09:32.988Z,25.02
2023-02-22T00:10:03.007Z,24.99
2023-02-22T00:10:33.032Z,24.99
2023-02-22T00:11:03.052Z,25.00
2023-02-22T00:11:33.077Z,25.00
2023-02-22T00:12:03.154Z,25.00
2023-02-22T00:12:33.177Z,25.02
2023-02-22T00:13:03.196Z,25.02
2023-02-22T00:13:33.255Z,25.02
2023-02-22T00:14:03.288Z,25.02
2023-02-22T00:14:33.308Z,25.02
2023-02-22T00:15:03.355Z,25.02
2023-02-22T00:15:33.353Z,25.02
2023-02-22T00:16:03.418Z,25.00
2023-02-22T00:16:33.515Z,25.00
2023-02-22T00:17:03.471Z,25.00
2023-02-22T00:17:33.485Z,25.00
2023-02-22T00:18:03.505Z,25.03
2023-02-22T00:18:33.564Z,25.00
2023-02-22T00:19:03.573Z,25.00
2023-02-22T00:19:33.594Z,25.02
2023-02-22T00:20:03.619Z,25.00
2023-02-22T00:20:33.640Z,25.00
2023-02-22T00:21:03.666Z,24.99
2023-02-22T00:21:33.687Z,25.00
2023-02-22T00:22:03.825Z,25.02
2023-02-22T00:22:33.919Z,25.02
2023-02-22T00:23:04.024Z,24.99
2023-02-22T00:23:34.156Z,24.99
2023-02-22T00:24:04.143Z,24.99
2023-02-22T00:24:34.252Z,24.99
2023-02-22T00:25:04.364Z,25.00
2023-02-22T00:25:34.470Z,25.00
2023-02-22T00:26:04.584Z,25.00
2023-02-22T00:26:34.702Z,25.00
2023-02-22T00:27:04.794Z,25.00
2023-02-22T00:27:34.780Z,24.99
2023-02-22T00:28:04.889Z,25.00
2023-02-22T00:28:35.014Z,24.97
2023-02-22T00:29:04.995Z,24.99
2023-02-22T00:29:35.109Z,25.02
2023-02-22T00:30:05.250Z,24.99
2023-02-22T00:30:35.363Z,25.02
2023-02-22T00:31:05.349Z,25.00
2023-02-22T00:31:35.471Z,25.02
2023-02-22T00:32:05.592Z,25.02
2023-02-22T00:32:35.533Z,25.00
2023-02-22T00:33:05.564Z,24.99
2023-02-22T00:33:35.587Z,25.02
2023-02-22T00:34:05.602Z,25.02
2023-02-22T00:34:35.633Z,25.00
2023-02-22T00:35:05.657Z,25.00
2023-02-22T00:35:35.674Z,24.99
2023-02-22T00:36:05.698Z,25.00
2023-02-22T00:36:35.723Z,25.02
2023-02-22T00:37:05.783Z,25.00
2023-02-22T00:37:35.781Z,24.99
2023-02-22T00:38:05.808Z,24.99
2023-02-22T00:38:35.834Z,25.00
2023-02-22T00:39:05.861Z,24.97
2023-02-22T00:39:35.884Z,24.99
2023-02-22T00:40:05.977Z,25.02
2023-02-22T00:40:36.023Z,24.97
2023-02-22T00:41:06.030Z,24.97
2023-02-22T00:41:36.075Z,25.03
2023-02-22T00:42:06.076Z,24.97
2023-02-22T00:42:36.100Z,25.00
2023-02-22T00:43:06.126Z,25.00
2023-02-22T00:43:36.147Z,25.02
2023-02-22T00:44:06.173Z,25.02
2023-02-22T00:44:36.198Z,25.00
2023-02-22T00:45:06.215Z,25.00
2023-02-22T00:45:36.301Z,24.99
2023-02-22T00:46:06.384Z,24.99
2023-02-22T00:46:36.406Z,25.00
2023-02-22T00:47:06.424Z,25.00
2023-02-22T00:47:36.455Z,24.99
2023-02-22T00:48:06.482Z,24.99
2023-02-22T00:48:36.500Z,24.99
2023-02-22T00:49:06.533Z,24.99
2023-02-22T00:49:36.569Z,25.00
2023-02-22T00:50:06.585Z,24.99
2023-02-22T00:50:36.615Z,25.02
2023-02-22T00:51:06.634Z,25.00
2023-02-22T00:51:36.648Z,25.00
2023-02-22T00:52:06.672Z,25.00
2023-02-22T00:52:36.749Z,24.99
2023-02-22T00:53:06.757Z,25.00
2023-02-22T00:53:36.781Z,25.00
2023-02-22T00:54:06.806Z,25.02
2023-02-22T00:54:36.841Z,24.99
2023-02-22T00:55:06.865Z,25.00
2023-02-22T00:55:36.895Z,24.97
2023-02-22T00:56:06.913Z,24.97
2023-02-22T00:56:36.943Z,24.99
2023-02-22T00:57:06.966Z,25.00
2023-02-22T00:57:36.983Z,25.00
2023-02-22T00:58:07.008Z,24.97
2023-02-22T00:58:37.026Z,25.00
2023-02-22T00:59:07.072Z,25.00
2023-02-22T00:59:37.081Z,25.00
2023-02-22T01:00:07.098Z,25.00
2023-02-22T01:00:37.120Z,25.00
2023-02-22T01:01:07.149Z,24.99
2023-02-22T01:01:37.215Z,24.99
2023-02-22T01:02:07.242Z,25.00
2023-02-22T01:02:37.253Z,25.00
2023-02-22T01:03:07.350Z,24.99
2023-02-22T01:03:37.364Z,24.99
2023-02-22T01:04:07.409Z,24.99
2023-02-22T01:04:37.492Z,25.00
2023-02-22T01:05:07.514Z,24.97
2023-02-22T01:05:37.536Z,25.00
2023-02-22T01:06:07.583Z,24.97
2023-02-22T01:06:37.601Z,24.99
2023-02-22T01:07:07.626Z,25.00
2023-02-22T01:07:37.648Z,24.99
2023-02-22T01:08:07.707Z,24.97
2023-02-22T01:08:37.692Z,25.00
2023-02-22T01:09:07.723Z,24.97
2023-02-22T01:09:37.738Z,24.99
2023-02-22T01:10:07.759Z,25.00
2023-02-22T01:10:37.794Z,25.00
2023-02-22T01:11:07.808Z,24.99
2023-02-22T01:11:37.832Z,25.00
2023-02-22T01:12:07.857Z,24.99
2023-02-22T01:12:37.877Z,24.96
2023-02-22T01:13:07.898Z,24.95
2023-02-22T01:13:37.919Z,25.02
2023-02-22T01:14:07.938Z,24.97
2023-02-22T01:14:37.960Z,24.96
2023-02-22T01:15:07.988Z,24.97
2023-02-22T01:15:38.007Z,25.00
2023-02-22T01:16:08.025Z,25.00
2023-02-22T01:16:38.106Z,25.00
2023-02-22T01:17:08.121Z,24.99
2023-02-22T01:17:38.139Z,24.97
2023-02-22T01:18:08.168Z,24.97
2023-02-22T01:18:38.178Z,24.99
2023-02-22T01:19:08.221Z,24.96
2023-02-22T01:19:38.237Z,24.97
2023-02-22T01:20:08.260Z,24.97
2023-02-22T01:20:38.290Z,24.97
2023-02-22T01:21:08.306Z,24.96
2023-02-22T01:21:38.333Z,24.96
2023-02-22T01:22:08.444Z,24.99
2023-02-22T01:22:38.557Z,24.99
2023-02-22T01:23:08.674Z,24.99
2023-02-22T01:23:38.815Z,24.97
2023-02-22T01:24:08.905Z,24.99
2023-02-22T01:24:39.005Z,24.97
2023-02-22T01:25:09.114Z,24.99
2023-02-22T01:25:39.241Z,24.96
2023-02-22T01:26:09.333Z,24.97
2023-02-22T01:26:39.449Z,24.97
2023-02-22T01:27:09.559Z,24.95
2023-02-22T01:27:39.671Z,24.99
2023-02-22T01:28:09.785Z,25.00
2023-02-22T01:28:39.895Z,24.96
2023-02-22T01:29:10.013Z,24.99
2023-02-22T01:29:40.041Z,24.99
2023-02-22T01:30:10.197Z,24.97
2023-02-22T01:30:40.468Z,24.97
2023-02-22T01:31:10.358Z,24.97
2023-02-22T01:31:40.347Z,24.97
2023-02-22T01:32:10.392Z,24.97
2023-02-22T01:32:40.400Z,24.97
2023-02-22T01:33:10.430Z,24.97
2023-02-22T01:33:40.444Z,24.97
2023-02-22T01:34:10.469Z,24.96
2023-02-22T01:34:40.493Z,24.97
2023-02-22T01:35:10.521Z,24.96
2023-02-22T01:35:40.541Z,24.99
2023-02-22T01:36:10.596Z,24.96
2023-02-22T01:36:40.592Z,24.96
2023-02-22T01:37:10.611Z,24.96
2023-02-22T01:37:40.639Z,24.97
2023-02-22T01:38:10.686Z,24.97
2023-02-22T01:38:40.715Z,24.97
2023-02-22T01:39:10.712Z,24.97
2023-02-22T01:39:40.767Z,24.97
2023-02-22T01:40:10.795Z,24.99
2023-02-22T01:40:40.816Z,24.97
2023-02-22T01:41:10.835Z,24.97
2023-02-22T01:41:40.859Z,24.99
2023-02-22T01:42:10.880Z,24.97
2023-02-22T01:42:40.906Z,24.95
2023-02-22T01:43:10.930Z,24.99
2023-02-22T01:43:40.956Z,24.97
2023-02-22T01:44:10.982Z,24.95
2023-02-22T01:44:41.023Z,24.97
2023-02-22T01:45:11.035Z,24.97
2023-02-22T01:45:41.061Z,24.97
2023-02-22T01:46:11.156Z,24.96
2023-02-22T01:46:41.152Z,24.97
2023-02-22T01:47:11.182Z,24.96
2023-02-22T01:47:41.195Z,24.99
2023-02-22T01:48:11.220Z,24.97
2023-02-22T01:48:41.240Z,24.96
2023-02-22T01:49:11.265Z,24.96
2023-02-22T01:49:41.301Z,24.97
2023-02-22T01:50:11.325Z,24.97
2023-02-22T01:50:41.343Z,24.95
2023-02-22T01:51:11.360Z,24.96
2023-02-22T01:51:41.386Z,24.97
2023-02-22T01:52:11.411Z,24.95
2023-02-22T01:52:41.437Z,24.96
2023-02-22T01:53:11.465Z,24.96
2023-02-22T01:53:41.493Z,24.99
2023-02-22T01:54:11.527Z,24.99
2023-02-22T01:54:41.527Z,24.97
2023-02-22T01:55:11.555Z,24.96
2023-02-22T01:55:41.582Z,24.96
2023-02-22T01:56:11.616Z,24.97
2023-02-22T01:56:41.631Z,24.97
2023-02-22T01:57:11.654Z,24.95
2023-02-22T01:57:41.681Z,24.99
2023-02-22T01:58:11.711Z,24.97
2023-02-22T01:58:41.732Z,24.96
2023-02-22T01:59:11.756Z,24.97
2023-02-22T01:59:41.785Z,24.95
2023-02-22T02:00:11.840Z,24.96
2023-02-22T02:00:41.840Z,24.96
2023-02-22T02:01:11.863Z,24.97
2023-02-22T02:01:41.882Z,24.96
2023-02-22T02:02:11.907Z,24.96
2023-02-22T02:02:41.938Z,24.96
2023-02-22T02:03:11.958Z,24.99
2023-02-22T02:03:42.046Z,24.96
2023-02-22T02:04:12.142Z,24.97
2023-02-22T02:04:42.139Z,24.95
2023-02-22T02:05:12.237Z,24.96
2023-02-22T02:05:42.251Z,24.95
2023-02-22T02:06:12.288Z,24.96
2023-02-22T02:06:42.299Z,24.95
2023-02-22T02:07:12.323Z,24.97
2023-02-22T02:07:42.365Z,24.97
2023-02-22T02:08:12.394Z,24.96
2023-02-22T02:08:42.409Z,24.96
2023-02-22T02:09:12.432Z,24.97
2023-02-22T02:09:42.484Z,24.96
2023-02-22T02:10:12.487Z,24.95
2023-02-22T02:10:42.512Z,24.97
2023-02-22T02:11:12.528Z,24.96
2023-02-22T02:11:42.583Z,24.96
2023-02-22T02:12:12.589Z,24.96
2023-02-22T02:12:42.610Z,24.93
2023-02-22T02:13:12.663Z,24.93
2023-02-22T02:13:42.683Z,24.97
2023-02-22T02:14:12.709Z,24.95
2023-02-22T02:14:42.730Z,24.95
2023-02-22T02:15:12.757Z,24.96
2023-02-22T02:15:42.779Z,24.95
2023-02-22T02:16:12.819Z,24.97
2023-02-22T02:16:42.878Z,24.91
2023-02-22T02:17:12.894Z,24.95
2023-02-22T02:17:42.924Z,24.91
2023-02-22T02:18:12.947Z,24.96
2023-02-22T02:18:42.978Z,24.96
2023-02-22T02:19:12.992Z,24.96
2023-02-22T02:19:43.047Z,24.96
2023-02-22T02:20:13.049Z,24.95
2023-02-22T02:20:43.072Z,24.93
2023-02-22T02:21:13.097Z,24.93
2023-02-22T02:21:43.108Z,24.95
2023-02-22T02:22:13.236Z,24.95
2023-02-22T02:22:43.215Z,24.95
2023-02-22T02:23:13.338Z,24.97
2023-02-22T02:23:43.441Z,24.95
2023-02-22T02:24:13.555Z,24.95
2023-02-22T02:24:43.664Z,24.93
2023-02-22T02:25:13.797Z,24.91
2023-02-22T02:25:43.885Z,24.93
2023-02-22T02:26:13.994Z,24.95
2023-02-22T02:26:44.104Z,24.93
2023-02-22T02:27:14.221Z,24.93
2023-02-22T02:27:44.333Z,24.95
2023-02-22T02:28:14.440Z,24.93
2023-02-22T02:28:44.558Z,24.93
2023-02-22T02:29:14.663Z,24.96
2023-02-22T02:29:44.782Z,24.96
2023-02-22T02:30:14.958Z,24.91
2023-02-22T02:30:44.920Z,24.93
2023-02-22T02:31:15.669Z,24.93
2023-02-22T02:31:45.231Z,24.93
2023-02-22T02:32:15.287Z,24.95
2023-02-22T02:32:45.287Z,24.95
2023-02-22T02:33:15.278Z,24.95
2023-02-22T02:33:45.323Z,24.95
2023-02-22T02:34:15.338Z,24.95
2023-02-22T02:34:45.361Z,24.93
2023-02-22T02:35:15.388Z,24.96
2023-02-22T02:35:45.413Z,24.95
2023-02-22T02:36:15.447Z,24.93
2023-02-22T02:36:45.461Z,24.91
2023-02-22T02:37:15.489Z,24.93
2023-02-22T02:37:45.518Z,24.95
2023-02-22T02:38:15.541Z,24.91
2023-02-22T02:38:45.720Z,24.93
2023-02-22T02:39:15.607Z,24.93
2023-02-22T02:39:45.630Z,24.93
2023-02-22T02:40:15.706Z,24.93
2023-02-22T02:40:45.716Z,24.93
2023-02-22T02:41:16.117Z,24.96
2023-02-22T02:41:45.796Z,24.93
2023-02-22T02:42:15.826Z,24.91
2023-02-22T02:42:45.851Z,24.91
2023-02-22T02:43:15.881Z,24.93
2023-02-22T02:43:45.906Z,24.93
2023-02-22T02:44:15.929Z,24.91
2023-02-22T02:44:45.953Z,24.95
2023-02-22T02:45:15.981Z,24.95
2023-02-22T02:45:46.004Z,24.91
2023-02-22T02:46:16.026Z,24.91
2023-02-22T02:46:46.238Z,24.91
2023-02-22T02:47:16.128Z,24.93
2023-02-22T02:47:46.153Z,24.91
2023-02-22T02:48:16.185Z,24.91
2023-02-22T02:48:46.195Z,24.93
2023-02-22T02:49:16.217Z,24.91
2023-02-22T02:49:46.241Z,24.91
2023-02-22T02:50:16.276Z,24.91
2023-02-22T02:50:46.303Z,24.95
2023-02-22T02:51:16.626Z,24.91
2023-02-22T02:51:46.404Z,24.91
2023-02-22T02:52:16.434Z,24.91
2023-02-22T02:52:46.460Z,24.90
2023-02-22T02:53:16.482Z,24.91
2023-02-22T02:53:46.508Z,24.93
2023-02-22T02:54:16.531Z,24.90
2023-02-22T02:54:46.574Z,24.93
2023-02-22T02:55:16.594Z,24.91
2023-02-22T02:55:46.644Z,24.90
2023-02-22T02:56:16.642Z,24.91
2023-02-22T02:56:46.697Z,24.91
2023-02-22T02:57:16.713Z,24.91
2023-02-22T02:57:46.736Z,24.89
2023-02-22T02:58:16.759Z,24.91
2023-02-22T02:58:46.778Z,24.90
2023-02-22T02:59:16.828Z,24.93
2023-02-22T02:59:46.831Z,24.91
2023-02-22T03:00:16.848Z,24.91
2023-02-22T03:00:46.873Z,24.93
2023-02-22T03:01:17.253Z,24.91
2023-02-22T03:01:47.008Z,24.91
2023-02-22T03:02:17.014Z,24.90
2023-02-22T03:02:47.045Z,24.91
2023-02-22T03:03:17.067Z,24.91
2023-02-22T03:03:47.089Z,24.90
2023-02-22T03:04:17.116Z,24.90
2023-02-22T03:04:47.140Z,24.91
2023-02-22T03:05:17.174Z,24.91
2023-02-22T03:05:47.192Z,24.91
2023-02-22T03:06:17.214Z,24.91
2023-02-22T03:06:47.243Z,24.93
2023-02-22T03:07:17.368Z,24.90
2023-02-22T03:07:47.272Z,24.90
2023-02-22T03:08:17.300Z,24.90
2023-02-22T03:08:47.321Z,24.93
2023-02-22T03:09:17.343Z,24.90
2023-02-22T03:09:47.369Z,24.90
2023-02-22T03:10:17.387Z,24.91
2023-02-22T03:10:47.414Z,24.91
2023-02-22T03:11:17.786Z,24.89
2023-02-22T03:11:47.473Z,24.91
2023-02-22T03:12:17.493Z,24.90
2023-02-22T03:12:47.515Z,24.90
2023-02-22T03:13:17.547Z,24.90
2023-02-22T03:13:47.562Z,24.90
2023-02-22T03:14:17.584Z,24.89
2023-02-22T03:14:47.604Z,24.90
2023-02-22T03:15:17.630Z,24.90
2023-02-22T03:15:47.665Z,24.89
2023-02-22T03:16:17.729Z,24.90
2023-02-22T03:16:47.745Z,24.90
2023-02-22T03:17:17.766Z,24.90
2023-02-22T03:17:47.806Z,24.89
2023-02-22T03:18:17.847Z,24.90
2023-02-22T03:18:47.849Z,24.90
2023-02-22T03:19:17.872Z,24.89
2023-02-22T03:19:47.890Z,24.90
2023-02-22T03:20:17.915Z,24.89
2023-02-22T03:20:47.938Z,24.90
2023-02-22T03:21:18.238Z,24.91
2023-02-22T03:21:48.030Z,24.90
2023-02-22T03:22:18.143Z,24.91
2023-02-22T03:22:48.264Z,24.89
2023-02-22T03:23:18.361Z,24.90
2023-02-22T03:23:48.471Z,24.90
2023-02-22T03:24:18.583Z,24.90
2023-02-22T03:24:48.689Z,24.90
2023-02-22T03:25:18.805Z,24.90
2023-02-22T03:25:48.908Z,24.91
2023-02-22T03:26:19.021Z,24.89
2023-02-22T03:26:49.159Z,24.89
2023-02-22T03:27:19.150Z,24.90
2023-02-22T03:27:49.282Z,24.89
2023-02-22T03:28:19.380Z,24.91
2023-02-22T03:28:49.391Z,24.90
2023-02-22T03:29:19.487Z,24.90
2023-02-22T03:29:49.599Z,24.89
2023-02-22T03:30:19.774Z,24.91
2023-02-22T03:30:49.746Z,24.89
2023-02-22T03:31:20.079Z,24.87
2023-02-22T03:31:49.770Z,24.87
2023-02-22T03:32:19.820Z,24.89
2023-02-22T03:32:49.826Z,24.89
2023-02-22T03:33:19.849Z,24.90
2023-02-22T03:33:49.878Z,24.89
2023-02-22T03:34:19.908Z,24.89
2023-02-22T03:34:49.922Z,24.89
2023-02-22T03:35:19.948Z,24.87
2023-02-22T03:35:49.967Z,24.87
2023-02-22T03:36:19.992Z,24.89
2023-02-22T03:36:50.024Z,24.87
2023-02-22T03:37:20.043Z,24.87
2023-02-22T03:37:50.074Z,24.86
2023-02-22T03:38:20.090Z,24.90
2023-02-22T03:38:50.131Z,24.87
2023-02-22T03:39:20.143Z,24.89
2023-02-22T03:39:50.168Z,24.89
2023-02-22T03:40:20.193Z,24.87
2023-02-22T03:40:50.220Z,24.86
2023-02-22T03:41:20.242Z,24.87
2023-02-22T03:41:50.277Z,24.86
2023-02-22T03:42:20.335Z,24.87
2023-02-22T03:42:50.336Z,24.86
2023-02-22T03:43:20.354Z,24.87
2023-02-22T03:43:50.382Z,24.89
2023-02-22T03:44:20.399Z,24.90
2023-02-22T03:44:50.421Z,24.89
2023-02-22T03:45:20.446Z,24.86
2023-02-22T03:45:50.466Z,24.87
2023-02-22T03:46:20.542Z,24.89
2023-02-22T03:46:50.601Z,24.87
2023-02-22T03:47:20.624Z,24.86
2023-02-22T03:47:50.651Z,24.86
2023-02-22T03:48:20.674Z,24.89
2023-02-22T03:48:50.696Z,24.87
2023-02-22T03:49:20.714Z,24.86
2023-02-22T03:49:50.734Z,24.86
2023-02-22T03:50:20.759Z,24.87
2023-02-22T03:50:50.782Z,24.89
2023-02-22T03:51:21.150Z,24.87
2023-02-22T03:51:50.823Z,24.87
2023-02-22T03:52:20.852Z,24.87
2023-02-22T03:52:50.872Z,24.89
2023-02-22T03:53:20.895Z,24.89
2023-02-22T03:53:50.925Z,24.87
2023-02-22T03:54:20.949Z,24.85
2023-02-22T03:54:50.970Z,24.86
2023-02-22T03:55:20.991Z,24.89
2023-02-22T03:55:51.063Z,24.89
2023-02-22T03:56:21.054Z,24.87
2023-02-22T03:56:51.100Z,24.89
2023-02-22T03:57:21.167Z,24.86
2023-02-22T03:57:51.303Z,24.87
2023-02-22T03:58:21.201Z,24.85
2023-02-22T03:58:51.192Z,24.87
2023-02-22T03:59:21.217Z,24.87
2023-02-22T03:59:51.236Z,24.89
2023-02-22T04:00:21.263Z,24.86
2023-02-22T04:00:51.291Z,24.87
2023-02-22T04:01:21.311Z,24.90
2023-02-22T04:01:51.332Z,24.86
2023-02-22T04:02:21.356Z,24.89
2023-02-22T04:02:51.465Z,24.87
2023-02-22T04:03:21.603Z,24.89
2023-02-22T04:03:51.497Z,24.87
2023-02-22T04:04:21.553Z,24.85
2023-02-22T04:04:51.637Z,24.87
2023-02-22T04:05:21.679Z,24.87
2023-02-22T04:05:51.700Z,24.87
2023-02-22T04:06:21.725Z,24.86
2023-02-22T04:06:51.742Z,24.86
2023-02-22T04:07:21.772Z,24.86
2023-02-22T04:07:51.798Z,24.87
2023-02-22T04:08:21.816Z,24.87
2023-02-22T04:08:51.842Z,24.85
2023-02-22T04:09:21.861Z,24.86
2023-02-22T04:09:51.892Z,24.86
2023-02-22T04:10:21.909Z,24.83
2023-02-22T04:10:51.934Z,24.86
2023-02-22T04:11:21.955Z,24.86
2023-02-22T04:11:51.979Z,24.85
2023-02-22T04:12:22.005Z,24.85
2023-02-22T04:12:52.023Z,24.86
2023-02-22T04:13:22.064Z,24.86
2023-02-22T04:13:52.064Z,24.85
2023-02-22T04:14:23.847Z,24.85
2023-02-22T04:14:52.170Z,24.85
2023-02-22T04:15:22.202Z,24.85
2023-02-22T04:15:52.266Z,24.83
2023-02-22T04:16:22.337Z,24.80
2023-02-22T04:16:52.363Z,24.85
2023-02-22T04:17:22.392Z,24.83
2023-02-22T04:17:52.421Z,24.85
2023-02-22T04:18:22.438Z,24.85
2023-02-22T04:18:52.463Z,24.85
2023-02-22T04:19:22.478Z,24.85
2023-02-22T04:19:52.498Z,24.85
2023-02-22T04:20:22.526Z,24.83
2023-02-22T04:20:52.547Z,24.85
2023-02-22T04:21:22.565Z,24.83
2023-02-22T04:21:52.687Z,24.85
2023-02-22T04:22:22.801Z,24.85
2023-02-22T04:22:52.913Z,24.82
2023-02-22T04:23:23.021Z,24.87
2023-02-22T04:23:53.134Z,24.85
2023-02-22T04:24:23.244Z,24.83
2023-02-22T04:24:53.358Z,24.83
2023-02-22T04:25:23.474Z,24.85
2023-02-22T04:25:53.580Z,24.85
2023-02-22T04:26:23.696Z,24.85
2023-02-22T04:26:53.805Z,24.83
2023-02-22T04:27:23.917Z,24.85
2023-02-22T04:27:54.037Z,24.82
2023-02-22T04:28:24.146Z,24.83
2023-02-22T04:28:54.280Z,24.86
2023-02-22T04:29:24.364Z,24.83
2023-02-22T04:29:54.477Z,24.85
2023-02-22T04:30:24.543Z,24.85
2023-02-22T04:30:54.607Z,24.82
2023-02-22T04:31:24.610Z,24.85
2023-02-22T04:31:54.628Z,24.87
2023-02-22T04:32:24.670Z,24.83
2023-02-22T04:32:54.680Z,24.83
2023-02-22T04:33:24.702Z,24.82
2023-02-22T04:33:54.737Z,24.83
2023-02-22T04:34:24.754Z,24.83
2023-02-22T04:34:54.782Z,24.82
2023-02-22T04:35:24.810Z,24.85
2023-02-22T04:35:54.823Z,24.86
2023-02-22T04:36:24.855Z,24.83
2023-02-22T04:36:54.873Z,24.83
2023-02-22T04:37:24.902Z,24.83
2023-02-22T04:37:54.935Z,24.83
2023-02-22T04:38:24.949Z,24.85
2023-02-22T04:38:54.966Z,24.86
2023-02-22T04:39:25.084Z,24.87
2023-02-22T04:39:55.068Z,24.87
2023-02-22T04:40:25.096Z,24.86
2023-02-22T04:40:55.120Z,24.85
2023-02-22T04:41:25.712Z,24.87
2023-02-22T04:41:55.258Z,24.89
2023-02-22T04:42:25.284Z,24.87
2023-02-22T04:42:55.308Z,24.89
2023-02-22T04:43:25.339Z,24.89
2023-02-22T04:43:55.353Z,24.89
2023-02-22T04:44:25.404Z,24.90
2023-02-22T04:44:55.398Z,24.91
2023-02-22T04:45:25.422Z,24.93
2023-02-22T04:45:55.476Z,24.86
2023-02-22T04:46:25.510Z,24.85
2023-02-22T04:46:55.527Z,24.90
2023-02-22T04:47:25.552Z,24.90
2023-02-22T04:47:55.578Z,24.90
2023-02-22T04:48:25.599Z,24.93
2023-02-22T04:48:55.626Z,24.91
2023-02-22T04:49:25.654Z,24.95
2023-02-22T04:49:55.684Z,24.93
2023-02-22T04:50:25.702Z,24.96
2023-02-22T04:50:55.726Z,24.96
2023-02-22T04:51:25.744Z,24.99
2023-02-22T04:51:55.763Z,25.00
2023-02-22T04:52:25.782Z,24.99
2023-02-22T04:52:55.809Z,25.02
2023-02-22T04:53:25.829Z,25.03
2023-02-22T04:53:55.859Z,25.03
2023-02-22T04:54:25.873Z,25.02
2023-02-22T04:54:55.896Z,25.03
2023-02-22T04:55:25.918Z,25.06
2023-02-22T04:55:56.030Z,25.06
2023-02-22T04:56:26.054Z,25.05
2023-02-22T04:56:56.050Z,25.07
2023-02-22T04:57:26.080Z,25.10
2023-02-22T04:57:56.115Z,25.11
2023-02-22T04:58:26.137Z,25.11
2023-02-22T04:58:56.168Z,25.11
2023-02-22T04:59:26.187Z,25.14
2023-02-22T04:59:56.240Z,25.14
2023-02-22T05:00:26.235Z,25.16
2023-02-22T05:00:56.257Z,25.16
2023-02-22T05:01:26.279Z,25.17
2023-02-22T05:01:56.302Z,25.17
2023-02-22T05:02:26.479Z,25.20
2023-02-22T05:02:56.509Z,25.16
2023-02-22T05:03:26.468Z,25.21
2023-02-22T05:03:56.485Z,25.19
2023-02-22T05:04:26.553Z,25.21
2023-02-22T05:04:56.613Z,25.23
2023-02-22T05:05:26.628Z,25.24
2023-02-22T05:05:56.663Z,25.23
2023-02-22T05:06:26.683Z,25.27
2023-02-22T05:06:56.704Z,25.26
2023-02-22T05:07:26.768Z,25.17
2023-02-22T05:07:56.772Z,25.20
2023-02-22T05:08:26.799Z,25.23
2023-02-22T05:08:56.828Z,25.23
2023-02-22T05:09:26.867Z,25.21
2023-02-22T05:09:56.890Z,25.26
2023-02-22T05:10:26.914Z,25.27
2023-02-22T05:10:56.938Z,25.26
2023-02-22T05:11:26.970Z,25.28
2023-02-22T05:11:56.983Z,25.30
2023-02-22T05:12:27.013Z,25.31
2023-02-22T05:12:57.028Z,25.33
2023-02-22T05:13:27.052Z,25.34
2023-02-22T05:13:57.118Z,25.36
2023-02-22T05:14:27.193Z,25.31
2023-02-22T05:14:57.218Z,25.38
2023-02-22T05:15:27.280Z,25.31
2023-02-22T05:15:57.376Z,25.34
2023-02-22T05:16:27.387Z,25.36
2023-02-22T05:16:57.408Z,25.37
2023-02-22T05:17:27.436Z,25.38
2023-02-22T05:17:57.466Z,25.38
2023-02-22T05:18:27.487Z,25.41
2023-02-22T05:18:57.516Z,25.41
2023-02-22T05:19:27.530Z,25.44
2023-02-22T05:19:57.556Z,25.45
2023-02-22T05:20:27.579Z,25.48
2023-02-22T05:20:57.601Z,25.48
2023-02-22T05:21:27.621Z,25.49
2023-02-22T05:21:57.619Z,25.51
2023-02-22T05:22:27.732Z,25.54
2023-02-22T05:22:57.849Z,25.58
2023-02-22T05:23:27.845Z,25.55
2023-02-22T05:23:57.972Z,25.58
2023-02-22T05:24:28.068Z,25.57
2023-02-22T05:24:58.182Z,25.57
2023-02-22T05:25:28.289Z,25.60
2023-02-22T05:25:58.413Z,25.60
2023-02-22T05:26:28.523Z,25.61
2023-02-22T05:26:58.627Z,25.64
2023-02-22T05:27:28.740Z,25.64
2023-02-22T05:27:58.930Z,25.64
2023-02-22T05:28:28.932Z,25.67
2023-02-22T05:28:58.954Z,25.68
2023-02-22T05:29:28.985Z,25.67
2023-02-22T05:29:59.007Z,25.69
2023-02-22T05:30:29.051Z,25.65
2023-02-22T05:30:59.120Z,25.67
2023-02-22T05:31:29.150Z,25.69
2023-02-22T05:31:59.318Z,25.71
2023-02-22T05:32:29.247Z,25.68
2023-02-22T05:32:59.355Z,25.69
2023-02-22T05:33:29.379Z,25.74
2023-02-22T05:33:59.405Z,25.74
2023-02-22T05:34:29.444Z,25.75
2023-02-22T05:34:59.507Z,25.76
2023-02-22T05:35:29.513Z,25.76
2023-02-22T05:35:59.535Z,25.79
2023-02-22T05:36:29.584Z,25.78
2023-02-22T05:36:59.585Z,25.81
2023-02-22T05:37:29.629Z,25.82
2023-02-22T05:37:59.710Z,25.86
2023-02-22T05:38:29.760Z,25.82
2023-02-22T05:38:59.784Z,25.84
2023-02-22T05:39:29.804Z,25.84
2023-02-22T05:39:59.829Z,25.85
2023-02-22T05:40:29.867Z,25.85
2023-02-22T05:40:59.894Z,25.88
2023-02-22T05:41:29.908Z,25.88
2023-02-22T05:41:59.965Z,25.86
2023-02-22T05:42:30.004Z,25.92
2023-02-22T05:43:00.165Z,25.89
2023-02-22T05:43:30.064Z,25.89
2023-02-22T05:44:00.180Z,25.91
2023-02-22T05:44:30.196Z,25.89
2023-02-22T05:45:00.216Z,25.88
2023-02-22T05:45:30.266Z,25.86
2023-02-22T05:46:00.295Z,25.89
2023-02-22T05:46:30.319Z,25.86
2023-02-22T05:47:00.366Z,25.89
2023-02-22T05:47:30.419Z,25.85
2023-02-22T05:48:00.474Z,25.89
2023-02-22T05:48:30.482Z,25.89
2023-02-22T05:49:00.507Z,25.89
2023-02-22T05:49:30.541Z,25.89
2023-02-22T05:50:00.587Z,25.88
2023-02-22T05:50:30.629Z,25.89
2023-02-22T05:51:00.651Z,25.91
2023-02-22T05:51:30.697Z,25.88
2023-02-22T05:52:00.815Z,25.88
2023-02-22T05:52:30.798Z,25.88
2023-02-22T05:53:00.832Z,25.88
2023-02-22T05:53:30.870Z,25.89
2023-02-22T05:54:00.913Z,25.88
2023-02-22T05:54:30.982Z,25.88
2023-02-22T05:55:01.047Z,25.89
2023-02-22T05:55:31.073Z,25.91
2023-02-22T05:56:01.097Z,25.89
2023-02-22T05:56:31.133Z,25.91
2023-02-22T05:57:01.146Z,25.91
2023-02-22T05:57:31.226Z,25.89
2023-02-22T05:58:01.268Z,25.91
2023-02-22T05:58:31.315Z,25.89
2023-02-22T05:59:01.370Z,25.91
2023-02-22T05:59:31.388Z,25.91
2023-02-22T06:00:01.424Z,25.89
2023-02-22T06:00:31.480Z,25.89
2023-02-22T06:01:03.147Z,25.92
2023-02-22T06:01:31.593Z,25.88
2023-02-22T06:02:01.620Z,25.88
2023-02-22T06:02:31.634Z,25.91
2023-02-22T06:03:01.670Z,25.89
2023-02-22T06:03:31.703Z,25.89
2023-02-22T06:04:01.717Z,25.89
2023-02-22T06:04:31.740Z,25.89
2023-02-22T06:05:01.766Z,25.88
2023-02-22T06:05:31.814Z,25.89
2023-02-22T06:06:01.876Z,25.89
2023-02-22T06:06:31.892Z,25.88
2023-02-22T06:07:01.930Z,25.88
2023-02-22T06:07:31.945Z,25.89
2023-02-22T06:08:02.022Z,25.89
2023-02-22T06:08:32.029Z,25.89
2023-02-22T06:09:02.056Z,25.89
2023-02-22T06:09:32.081Z,25.91
2023-02-22T06:10:02.119Z,25.89
2023-02-22T06:10:32.131Z,25.89
2023-02-22T06:11:02.165Z,25.89
2023-02-22T06:11:32.183Z,25.91
2023-02-22T06:12:02.204Z,25.89
2023-02-22T06:12:32.227Z,25.89
2023-02-22T06:13:02.252Z,25.92
2023-02-22T06:13:32.291Z,25.92
2023-02-22T06:14:02.304Z,25.91
2023-02-22T06:14:32.334Z,25.91
2023-02-22T06:15:02.358Z,25.91
2023-02-22T06:15:32.388Z,25.92
2023-02-22T06:16:02.453Z,25.93
2023-02-22T06:16:32.540Z,25.92
2023-02-22T06:17:02.576Z,25.93
2023-02-22T06:17:32.605Z,25.93
2023-02-22T06:18:02.651Z,25.95
2023-02-22T06:18:32.664Z,25.95
2023-02-22T06:19:02.693Z,25.93
2023-02-22T06:19:32.740Z,25.96
2023-02-22T06:20:02.769Z,25.93
2023-02-22T06:20:32.785Z,25.93
2023-02-22T06:21:02.814Z,25.93
2023-02-22T06:21:32.838Z,25.93
2023-02-22T06:22:02.961Z,25.95
2023-02-22T06:22:33.071Z,25.97
2023-02-22T06:23:03.196Z,25.97
2023-02-22T06:23:33.390Z,25.91
2023-02-22T06:24:03.414Z,25.91
2023-02-22T06:24:33.526Z,25.92
2023-02-22T06:25:03.638Z,25.91
2023-02-22T06:25:33.754Z,25.93
2023-02-22T06:26:03.857Z,25.86
2023-02-22T06:26:33.967Z,25.85